sensor_id;sensor_type;location;lat;lon;timestamp;pressure;altitude;pressure_sealevel;temperature;humidity
46724;BME280;32463;48.298;11.620;2023-02-28T00:00:35;96812.06;;;-2.73;100.00
46724;BME280;32463;48.298;11.620;2023-02-28T00:03:02;96814.06;;;-2.80;100.00
46724;BME280;32463;48.298;11.620;2023-02-28T00:05:29;96811.66;;;-2.83;100.00
46724;BME280;32463;48.298;11.620;2023-02-28T00:07:56;96805.19;;;-2.90;100.00
46724;BME280;32463;48.298;11.620;2023-02-28T00:10:25;96814.44;;;-2.89;100.00
46724;BME280;32463;48.298;11.620;2023-02-28T00:12:54;96807.78;;;-2.91;100.00
46724;BME280;32463;48.298;11.620;2023-02-28T00:15:22;96797.97;;;-2.99;100.00
46724;BME280;32463;48.298;11.620;2023-02-28T00:17:49;96805.56;;;-2.99;100.00
46724;BME280;32463;48.298;11.620;2023-02-28T00:20:16;96800.63;;;-3.02;100.00
46724;BME280;32463;48.298;11.620;2023-02-28T00:22:50;96801.03;;;-3.11;100.00
46724;BME280;32463;48.298;11.620;2023-02-28T00:25:20;96802.69;;;-3.10;100.00
46724;BME280;32463;48.298;11.620;2023-02-28T00:27:47;96786.13;;;-3.19;100.00
46724;BME280;32463;48.298;11.620;2023-02-28T00:30:17;96794.50;;;-3.17;100.00
46724;BME280;32463;48.298;11.620;2023-02-28T00:32:44;96798.88;;;-3.20;100.00
46724;BME280;32463;48.298;11.620;2023-02-28T00:35:11;96796.47;;;-3.23;100.00
46724;BME280;32463;48.298;11.620;2023-02-28T00:37:38;96797.41;;;-3.26;100.00
46724;BME280;32463;48.298;11.620;2023-02-28T00:40:06;96786.81;;;-3.35;100.00
46724;BME280;32463;48.298;11.620;2023-02-28T00:42:34;96802.59;;;-3.29;100.00
46724;BME280;32463;48.298;11.620;2023-02-28T00:45:02;96795.19;;;-3.33;100.00
46724;BME280;32463;48.298;11.620;2023-02-28T00:47:30;96790.25;;;-3.36;100.00
46724;BME280;32463;48.298;11.620;2023-02-28T00:49:56;96791.06;;;-3.36;100.00
46724;BME280;32463;48.298;11.620;2023-02-28T00:52:23;96791.88;;;-3.35;100.00
46724;BME280;32463;48.298;11.620;2023-02-28T00:54:49;96803.81;;;-3.37;100.00
46724;BME280;32463;48.298;11.620;2023-02-28T00:57:16;96791.22;;;-3.39;100.00
46724;BME280;32463;48.298;11.620;2023-02-28T00:59:42;96797.34;;;-3.45;100.00
46724;BME280;32463;48.298;11.620;2023-02-28T01:02:09;96787.28;;;-3.46;100.00
46724;BME280;32463;48.298;11.620;2023-02-28T01:04:35;96787.34;;;-3.48;100.00
46724;BME280;32463;48.298;11.620;2023-02-28T01:07:01;96791.69;;;-3.51;100.00
46724;BME280;32463;48.298;11.620;2023-02-28T01:09:28;96772.59;;;-3.60;100.00
46724;BME280;32463;48.298;11.620;2023-02-28T01:11:55;96794.16;;;-3.50;100.00
46724;BME280;32463;48.298;11.620;2023-02-28T01:14:21;96788.41;;;-3.53;100.00
46724;BME280;32463;48.298;11.620;2023-02-28T01:16:47;96780.44;;;-3.66;100.00
46724;BME280;32463;48.298;11.620;2023-02-28T01:19:14;96788.06;;;-3.66;100.00
46724;BME280;32463;48.298;11.620;2023-02-28T01:21:40;96787.22;;;-3.66;100.00
46724;BME280;32463;48.298;11.620;2023-02-28T01:24:07;96781.59;;;-3.73;100.00
46724;BME280;32463;48.298;11.620;2023-02-28T01:26:33;96779.72;;;-3.68;100.00
46724;BME280;32463;48.298;11.620;2023-02-28T01:29:00;96782.38;;;-3.71;100.00
46724;BME280;32463;48.298;11.620;2023-02-28T01:31:26;96776.66;;;-3.76;100.00
46724;BME280;32463;48.298;11.620;2023-02-28T01:33:53;96770.94;;;-3.81;100.00
46724;BME280;32463;48.298;11.620;2023-02-28T01:36:22;96765.13;;;-3.83;100.00
46724;BME280;32463;48.298;11.620;2023-02-28T01:38:49;96763.69;;;-3.90;100.00
46724;BME280;32463;48.298;11.620;2023-02-28T01:41:25;96774.47;;;-3.85;100.00
46724;BME280;32463;48.298;11.620;2023-02-28T01:44:02;96768.75;;;-3.90;100.00
46724;BME280;32463;48.298;11.620;2023-02-28T01:46:34;96771.94;;;-3.85;100.00
46724;BME280;32463;48.298;11.620;2023-02-28T01:49:27;96768.16;;;-3.97;100.00
46724;BME280;32463;48.298;11.620;2023-02-28T01:51:56;96775.84;;;-3.98;100.00
46724;BME280;32463;48.298;11.620;2023-02-28T01:54:28;96778.91;;;-3.90;100.00
46724;BME280;32463;48.298;11.620;2023-02-28T01:57:10;96768.88;;;-3.93;100.00
46724;BME280;32463;48.298;11.620;2023-02-28T01:59:46;96771.19;;;-3.87;100.00
46724;BME280;32463;48.298;11.620;2023-02-28T02:02:16;96762.38;;;-3.99;100.00
46724;BME280;32463;48.298;11.620;2023-02-28T02:07:23;96769.81;;;-3.96;100.00
46724;BME280;32463;48.298;11.620;2023-02-28T02:09:59;96770.66;;;-3.95;100.00
46724;BME280;32463;48.298;11.620;2023-02-28T02:15:12;96765.34;;;-3.89;100.00
46724;BME280;32463;48.298;11.620;2023-02-28T02:17:45;96766.88;;;-3.85;100.00
46724;BME280;32463;48.298;11.620;2023-02-28T02:25:25;96767.69;;;-3.85;100.00
46724;BME280;32463;48.298;11.620;2023-02-28T02:34:26;96763.47;;;-3.84;100.00
46724;BME280;32463;48.298;11.620;2023-02-28T02:37:14;96760.88;;;-3.83;100.00
46724;BME280;32463;48.298;11.620;2023-02-28T02:39:53;96757.44;;;-3.82;100.00
46724;BME280;32463;48.298;11.620;2023-02-28T02:42:29;96752.75;;;-3.91;100.00
46724;BME280;32463;48.298;11.620;2023-02-28T02:45:07;96763.59;;;-3.87;100.00
46724;BME280;32463;48.298;11.620;2023-02-28T02:47:37;96755.50;;;-3.97;100.00
46724;BME280;32463;48.298;11.620;2023-02-28T02:50:08;96755.34;;;-3.92;100.00
46724;BME280;32463;48.298;11.620;2023-02-28T02:52:47;96749.22;;;-3.87;100.00
46724;BME280;32463;48.298;11.620;2023-02-28T02:55:15;96746.63;;;-3.85;100.00
46724;BME280;32463;48.298;11.620;2023-02-28T02:57:47;96757.41;;;-3.80;100.00
46724;BME280;32463;48.298;11.620;2023-02-28T03:00:18;96754.75;;;-3.77;100.00
46724;BME280;32463;48.298;11.620;2023-02-28T03:02:47;96756.28;;;-3.73;100.00
46724;BME280;32463;48.298;11.620;2023-02-28T03:05:20;96754.63;;;-3.74;100.00
46724;BME280;32463;48.298;11.620;2023-02-28T03:07:47;96739.66;;;-3.80;100.00
46724;BME280;32463;48.298;11.620;2023-02-28T03:27:09;96751.97;;;-3.71;100.00
46724;BME280;32463;48.298;11.620;2023-02-28T03:29:43;96744.25;;;-3.68;100.00
46724;BME280;32463;48.298;11.620;2023-02-28T03:32:21;96748.22;;;-3.62;100.00
46724;BME280;32463;48.298;11.620;2023-02-28T03:35:12;96746.50;;;-3.62;100.00
46724;BME280;32463;48.298;11.620;2023-02-28T03:37:48;96758.81;;;-3.53;100.00
46724;BME280;32463;48.298;11.620;2023-02-28T03:40:19;96762.88;;;-3.49;100.00
46724;BME280;32463;48.298;11.620;2023-02-28T03:42:50;96746.97;;;-3.52;100.00
46724;BME280;32463;48.298;11.620;2023-02-28T03:45:22;96751.72;;;-3.45;100.00
46724;BME280;32463;48.298;11.620;2023-02-28T03:47:58;96755.03;;;-3.43;100.00
46724;BME280;32463;48.298;11.620;2023-02-28T03:50:44;96752.25;;;-3.36;100.00
46724;BME280;32463;48.298;11.620;2023-02-28T03:53:16;96759.44;;;-3.27;100.00
46724;BME280;32463;48.298;11.620;2023-02-28T03:56:34;96773.00;;;-3.28;100.00
46724;BME280;32463;48.298;11.620;2023-02-28T04:01:32;96770.78;;;-3.16;100.00
46724;BME280;32463;48.298;11.620;2023-02-28T04:04:02;96760.84;;;-3.20;100.00
46724;BME280;32463;48.298;11.620;2023-02-28T04:06:31;96761.53;;;-3.17;100.00
46724;BME280;32463;48.298;11.620;2023-02-28T04:08:58;96771.75;;;-3.18;100.00
46724;BME280;32463;48.298;11.620;2023-02-28T04:11:30;96769.16;;;-3.17;100.00
46724;BME280;32463;48.298;11.620;2023-02-28T04:13:57;96762.50;;;-3.19;100.00
46724;BME280;32463;48.298;11.620;2023-02-28T04:16:24;96760.72;;;-3.17;100.00
46724;BME280;32463;48.298;11.620;2023-02-28T04:18:50;96770.97;;;-3.20;100.00
46724;BME280;32463;48.298;11.620;2023-02-28T04:21:17;96775.28;;;-3.22;100.00
46724;BME280;32463;48.298;11.620;2023-02-28T04:23:46;96780.34;;;-3.22;100.00
46724;BME280;32463;48.298;11.620;2023-02-28T04:26:12;96777.69;;;-3.19;100.00
46724;BME280;32463;48.298;11.620;2023-02-28T04:28:39;96781.00;;;-3.17;100.00
46724;BME280;32463;48.298;11.620;2023-02-28T04:31:05;96782.06;;;-3.23;100.00
46724;BME280;32463;48.298;11.620;2023-02-28T04:33:32;96784.41;;;-3.18;100.00
46724;BME280;32463;48.298;11.620;2023-02-28T04:36:04;96791.19;;;-3.19;100.00
46724;BME280;32463;48.298;11.620;2023-02-28T04:38:33;96787.66;;;-3.15;100.00
46724;BME280;32463;48.298;11.620;2023-02-28T04:41:00;96784.28;;;-3.15;100.00
46724;BME280;32463;48.298;11.620;2023-02-28T04:43:28;96783.72;;;-3.22;100.00
46724;BME280;32463;48.298;11.620;2023-02-28T04:45:56;96786.19;;;-3.20;100.00
46724;BME280;32463;48.298;11.620;2023-02-28T04:48:23;96792.78;;;-3.16;100.00
46724;BME280;32463;48.298;11.620;2023-02-28T04:50:51;96789.38;;;-3.15;100.00
46724;BME280;32463;48.298;11.620;2023-02-28T04:53:18;96793.03;;;-3.22;100.00
46724;BME280;32463;48.298;11.620;2023-02-28T04:55:45;96794.44;;;-3.15;100.00
46724;BME280;32463;48.298;11.620;2023-02-28T04:58:13;96787.13;;;-3.23;100.00
46724;BME280;32463;48.298;11.620;2023-02-28T05:00:39;96787.00;;;-3.20;100.00
46724;BME280;32463;48.298;11.620;2023-02-28T05:03:06;96786.19;;;-3.20;100.00
46724;BME280;32463;48.298;11.620;2023-02-28T05:05:32;96793.03;;;-3.22;100.00
46724;BME280;32463;48.298;11.620;2023-02-28T05:07:59;96791.38;;;-3.23;100.00
46724;BME280;32463;48.298;11.620;2023-02-28T05:10:25;96796.47;;;-3.23;100.00
46724;BME280;32463;48.298;11.620;2023-02-28T05:12:52;96795.50;;;-3.21;100.00
46724;BME280;32463;48.298;11.620;2023-02-28T05:15:18;96809.84;;;-3.20;100.00
46724;BME280;32463;48.298;11.620;2023-02-28T05:17:44;96805.59;;;-3.19;100.00
46724;BME280;32463;48.298;11.620;2023-02-28T05:20:12;96797.22;;;-3.21;100.00
46724;BME280;32463;48.298;11.620;2023-02-28T05:22:40;96819.91;;;-3.18;100.00
46724;BME280;32463;48.298;11.620;2023-02-28T05:25:10;96816.25;;;-3.11;100.00
46724;BME280;32463;48.298;11.620;2023-02-28T05:27:39;96809.66;;;-3.15;100.00
46724;BME280;32463;48.298;11.620;2023-02-28T05:30:06;96813.19;;;-3.19;100.00
46724;BME280;32463;48.298;11.620;2023-02-28T05:32:36;96819.16;;;-3.20;100.00
46724;BME280;32463;48.298;11.620;2023-02-28T05:35:03;96817.56;;;-3.23;100.00
46724;BME280;32463;48.298;11.620;2023-02-28T05:37:32;96811.53;;;-3.20;100.00
46724;BME280;32463;48.298;11.620;2023-02-28T05:39:59;96809.91;;;-3.21;100.00
46724;BME280;32463;48.298;11.620;2023-02-28T05:42:25;96809.19;;;-3.25;100.00
46724;BME280;32463;48.298;11.620;2023-02-28T05:44:52;96811.84;;;-3.28;100.00
46724;BME280;32463;48.298;11.620;2023-02-28T05:47:18;96820.16;;;-3.24;100.00
46724;BME280;32463;48.298;11.620;2023-02-28T05:49:45;96818.63;;;-3.28;100.00
46724;BME280;32463;48.298;11.620;2023-02-28T05:52:12;96815.09;;;-3.24;100.00
46724;BME280;32463;48.298;11.620;2023-02-28T05:54:38;96816.75;;;-3.23;100.00
46724;BME280;32463;48.298;11.620;2023-02-28T05:57:05;96820.28;;;-3.27;100.00
46724;BME280;32463;48.298;11.620;2023-02-28T05:59:31;96822.94;;;-3.30;100.00
46724;BME280;32463;48.298;11.620;2023-02-28T06:01:58;96812.25;;;-3.37;100.00
46724;BME280;32463;48.298;11.620;2023-02-28T06:04:24;96822.94;;;-3.30;100.00
46724;BME280;32463;48.298;11.620;2023-02-28T06:06:51;96816.28;;;-3.33;100.00
46724;BME280;32463;48.298;11.620;2023-02-28T06:09:18;96827.06;;;-3.28;100.00
46724;BME280;32463;48.298;11.620;2023-02-28T06:11:45;96830.44;;;-3.27;100.00
46724;BME280;32463;48.298;11.620;2023-02-28T06:14:15;96818.63;;;-3.28;100.00
46724;BME280;32463;48.298;11.620;2023-02-28T06:16:42;96825.47;;;-3.30;100.00
46724;BME280;32463;48.298;11.620;2023-02-28T06:19:09;96831.94;;;-3.23;100.00
46724;BME280;32463;48.298;11.620;2023-02-28T06:21:36;96838.66;;;-3.22;100.00
46724;BME280;32463;48.298;11.620;2023-02-28T06:24:03;96837.09;;;-3.25;100.00
46724;BME280;32463;48.298;11.620;2023-02-28T06:26:30;96841.16;;;-3.21;100.00
46724;BME280;32463;48.298;11.620;2023-02-28T06:28:56;96846.78;;;-3.14;100.00
46724;BME280;32463;48.298;11.620;2023-02-28T06:31:23;96850.09;;;-3.12;100.00
46724;BME280;32463;48.298;11.620;2023-02-28T06:33:51;96861.63;;;-3.05;100.00
46724;BME280;32463;48.298;11.620;2023-02-28T06:36:18;96851.34;;;-3.02;100.00
46724;BME280;32463;48.298;11.620;2023-02-28T06:38:45;96859.84;;;-3.03;100.00
46724;BME280;32463;48.298;11.620;2023-02-28T06:41:23;96853.81;;;-3.00;100.00
46724;BME280;32463;48.298;11.620;2023-02-28T06:43:51;96861.38;;;-2.99;100.00
46724;BME280;32463;48.298;11.620;2023-02-28T06:46:18;96849.84;;;-3.06;100.00
46724;BME280;32463;48.298;11.620;2023-02-28T06:48:45;96856.06;;;-2.93;100.00
46724;BME280;32463;48.298;11.620;2023-02-28T06:51:18;96857.69;;;-2.92;100.00
46724;BME280;32463;48.298;11.620;2023-02-28T06:53:47;96852.88;;;-2.98;100.00
46724;BME280;32463;48.298;11.620;2023-02-28T06:56:15;96859.53;;;-2.95;100.00
46724;BME280;32463;48.298;11.620;2023-02-28T06:58:41;96861.13;;;-2.93;100.00
46724;BME280;32463;48.298;11.620;2023-02-28T07:01:09;96877.09;;;-2.71;100.00
46724;BME280;32463;48.298;11.620;2023-02-28T07:03:35;96874.91;;;-2.78;100.00
46724;BME280;32463;48.298;11.620;2023-02-28T07:06:02;96877.38;;;-2.77;100.00
46724;BME280;32463;48.298;11.620;2023-02-28T07:08:29;96874.91;;;-2.78;100.00
46724;BME280;32463;48.298;11.620;2023-02-28T07:10:57;96880.25;;;-2.65;100.00
46724;BME280;32463;48.298;11.620;2023-02-28T07:13:23;96873.16;;;-2.57;100.00
46724;BME280;32463;48.298;11.620;2023-02-28T07:15:54;96880.00;;;-2.59;100.00
46724;BME280;32463;48.298;11.620;2023-02-28T07:18:21;96887.94;;;-2.67;100.00
46724;BME280;32463;48.298;11.620;2023-02-28T07:20:48;96883.56;;;-2.63;100.00
46724;BME280;32463;48.298;11.620;2023-02-28T07:23:14;96877.22;;;-2.74;100.00
46724;BME280;32463;48.298;11.620;2023-02-28T07:25:40;96882.78;;;-2.65;100.00
46724;BME280;32463;48.298;11.620;2023-02-28T07:28:07;96884.31;;;-2.61;100.00
46724;BME280;32463;48.298;11.620;2023-02-28T07:30:33;96884.69;;;-2.50;100.00
46724;BME280;32463;48.298;11.620;2023-02-28T07:33:00;96874.69;;;-2.53;100.00
46724;BME280;32463;48.298;11.620;2023-02-28T07:35:26;96885.16;;;-2.42;100.00
46724;BME280;32463;48.298;11.620;2023-02-28T07:37:53;96884.03;;;-2.35;100.00
46724;BME280;32463;48.298;11.620;2023-02-28T07:40:19;96883.13;;;-2.34;100.00
46724;BME280;32463;48.298;11.620;2023-02-28T07:42:46;96886.53;;;-2.15;100.00
46724;BME280;32463;48.298;11.620;2023-02-28T07:45:12;96890.38;;;-2.25;100.00
46724;BME280;32463;48.298;11.620;2023-02-28T07:47:40;96878.28;;;-2.20;100.00
46724;BME280;32463;48.298;11.620;2023-02-28T07:50:09;96886.09;;;-2.06;100.00
46724;BME280;32463;48.298;11.620;2023-02-28T07:52:37;96889.66;;;-2.10;100.00
46724;BME280;32463;48.298;11.620;2023-02-28T07:55:05;96889.81;;;-2.13;100.00
46724;BME280;32463;48.298;11.620;2023-02-28T07:57:31;96888.16;;;-2.14;100.00
46724;BME280;32463;48.298;11.620;2023-02-28T07:59:58;96882.28;;;-1.95;100.00
46724;BME280;32463;48.298;11.620;2023-02-28T08:02:25;96889.75;;;-1.92;100.00
46724;BME280;32463;48.298;11.620;2023-02-28T08:04:51;96890.97;;;-1.82;100.00
46724;BME280;32463;48.298;11.620;2023-02-28T08:07:18;96889.50;;;-1.86;100.00
46724;BME280;32463;48.298;11.620;2023-02-28T08:09:44;96883.91;;;-1.76;100.00
46724;BME280;32463;48.298;11.620;2023-02-28T08:12:11;96891.88;;;-1.83;100.00
46724;BME280;32463;48.298;11.620;2023-02-28T08:14:38;96900.41;;;-1.84;100.00
46724;BME280;32463;48.298;11.620;2023-02-28T08:17:04;96907.13;;;-1.83;100.00
46724;BME280;32463;48.298;11.620;2023-02-28T08:19:31;96893.50;;;-1.82;100.00
46724;BME280;32463;48.298;11.620;2023-02-28T08:21:58;96901.75;;;-1.77;100.00
46724;BME280;32463;48.298;11.620;2023-02-28T08:24:24;96897.50;;;-1.58;100.00
46724;BME280;32463;48.298;11.620;2023-02-28T08:26:51;96891.97;;;-1.49;100.00
46724;BME280;32463;48.298;11.620;2023-02-28T08:29:17;96891.97;;;-1.49;100.00
46724;BME280;32463;48.298;11.620;2023-02-28T08:31:44;96892.63;;;-1.26;100.00
46724;BME280;32463;48.298;11.620;2023-02-28T08:34:13;96895.84;;;-1.23;100.00
46724;BME280;32463;48.298;11.620;2023-02-28T08:36:40;96903.28;;;-1.01;100.00
46724;BME280;32463;48.298;11.620;2023-02-28T08:39:08;96910.31;;;-1.06;100.00
46724;BME280;32463;48.298;11.620;2023-02-28T08:41:35;96910.06;;;-0.84;100.00
46724;BME280;32463;48.298;11.620;2023-02-28T08:44:01;96903.94;;;-1.15;100.00
46724;BME280;32463;48.298;11.620;2023-02-28T08:46:28;96905.78;;;-1.18;100.00
46724;BME280;32463;48.298;11.620;2023-02-28T08:48:56;96902.06;;;-1.11;100.00
46724;BME280;32463;48.298;11.620;2023-02-28T08:51:25;96908.22;;;-0.98;100.00
46724;BME280;32463;48.298;11.620;2023-02-28T08:53:53;96897.75;;;-0.92;100.00
46724;BME280;32463;48.298;11.620;2023-02-28T08:56:20;96907.47;;;-0.83;100.00
46724;BME280;32463;48.298;11.620;2023-02-28T08:58:48;96910.38;;;-0.90;100.00
46724;BME280;32463;48.298;11.620;2023-02-28T09:01:16;96905.13;;;-0.87;100.00
46724;BME280;32463;48.298;11.620;2023-02-28T09:03:43;96912.91;;;-0.90;99.93
46724;BME280;32463;48.298;11.620;2023-02-28T09:06:12;96909.34;;;-0.69;99.52
46724;BME280;32463;48.298;11.620;2023-02-28T09:08:39;96908.94;;;-0.44;98.83
46724;BME280;32463;48.298;11.620;2023-02-28T09:11:06;96913.50;;;-0.51;98.23
46724;BME280;32463;48.298;11.620;2023-02-28T09:13:33;96902.50;;;-0.34;99.06
46724;BME280;32463;48.298;11.620;2023-02-28T09:16:01;96917.19;;;-0.06;96.77
46724;BME280;32463;48.298;11.620;2023-02-28T09:18:29;96921.88;;;0.17;95.33
46724;BME280;32463;48.298;11.620;2023-02-28T09:20:56;96922.53;;;-0.28;94.52
46724;BME280;32463;48.298;11.620;2023-02-28T09:23:23;96922.97;;;-0.20;96.10
46724;BME280;32463;48.298;11.620;2023-02-28T09:25:52;96923.03;;;-0.04;95.00
46724;BME280;32463;48.298;11.620;2023-02-28T09:28:19;96927.97;;;-0.01;94.58
46724;BME280;32463;48.298;11.620;2023-02-28T09:30:48;96917.09;;;-0.05;95.90
46724;BME280;32463;48.298;11.620;2023-02-28T09:33:16;96922.38;;;0.08;94.73
46724;BME280;32463;48.298;11.620;2023-02-28T09:35:45;96933.13;;;-0.03;93.79
46724;BME280;32463;48.298;11.620;2023-02-28T09:38:12;96935.72;;;-0.20;92.23
46724;BME280;32463;48.298;11.620;2023-02-28T09:40:56;96945.16;;;-0.22;94.49
46724;BME280;32463;48.298;11.620;2023-02-28T09:43:26;96937.41;;;-0.36;94.52
46724;BME280;32463;48.298;11.620;2023-02-28T09:45:59;96950.16;;;-0.03;93.64
46724;BME280;32463;48.298;11.620;2023-02-28T09:48:32;96936.84;;;0.08;90.63
46724;BME280;32463;48.298;11.620;2023-02-28T09:53:53;96941.72;;;0.28;89.87
46724;BME280;32463;48.298;11.620;2023-02-28T09:56:59;96942.94;;;0.21;89.80
46724;BME280;32463;48.298;11.620;2023-02-28T10:05:10;96949.53;;;0.41;87.81
46724;BME280;32463;48.298;11.620;2023-02-28T10:10:40;96949.34;;;0.12;88.54
46724;BME280;32463;48.298;11.620;2023-02-28T10:13:15;96954.97;;;0.19;88.28
46724;BME280;32463;48.298;11.620;2023-02-28T10:15:45;96951.31;;;0.07;88.65
46724;BME280;32463;48.298;11.620;2023-02-28T10:18:15;96951.97;;;0.11;90.19
46724;BME280;32463;48.298;11.620;2023-02-28T10:20:43;96951.47;;;0.04;89.95
46724;BME280;32463;48.298;11.620;2023-02-28T10:23:32;96948.53;;;0.12;90.95
46724;BME280;32463;48.298;11.620;2023-02-28T10:26:09;96948.56;;;0.43;87.75
46724;BME280;32463;48.298;11.620;2023-02-28T10:28:37;96948.56;;;0.75;85.55
46724;BME280;32463;48.298;11.620;2023-02-28T10:31:04;96946.84;;;0.59;84.52
46724;BME280;32463;48.298;11.620;2023-02-28T10:33:33;96956.78;;;0.80;85.47
46724;BME280;32463;48.298;11.620;2023-02-28T10:36:01;96940.50;;;0.66;85.70
46724;BME280;32463;48.298;11.620;2023-02-28T10:38:39;96953.25;;;0.66;84.98
46724;BME280;32463;48.298;11.620;2023-02-28T10:41:11;96954.28;;;0.94;84.37
46724;BME280;32463;48.298;11.620;2023-02-28T10:43:40;96959.75;;;0.72;86.36
46724;BME280;32463;48.298;11.620;2023-02-28T10:48:40;96951.81;;;1.08;84.77
46724;BME280;32463;48.298;11.620;2023-02-28T10:51:10;96958.06;;;1.18;82.67
46724;BME280;32463;48.298;11.620;2023-02-28T10:54:00;96952.31;;;0.99;82.14
46724;BME280;32463;48.298;11.620;2023-02-28T10:56:27;96957.41;;;0.99;83.14
46724;BME280;32463;48.298;11.620;2023-02-28T11:03:58;96954.94;;;1.13;80.51
46724;BME280;32463;48.298;11.620;2023-02-28T11:06:28;96959.91;;;1.60;78.56
46724;BME280;32463;48.298;11.620;2023-02-28T11:08:58;96959.72;;;1.63;78.16
46724;BME280;32463;48.298;11.620;2023-02-28T11:11:28;96967.63;;;1.45;79.19
46724;BME280;32463;48.298;11.620;2023-02-28T11:14:02;96957.88;;;1.51;79.37
46724;BME280;32463;48.298;11.620;2023-02-28T11:16:37;96963.53;;;1.26;79.78
46724;BME280;32463;48.298;11.620;2023-02-28T11:19:06;96970.09;;;1.00;80.11
46724;BME280;32463;48.298;11.620;2023-02-28T11:21:50;96967.09;;;1.24;79.44
46724;BME280;32463;48.298;11.620;2023-02-28T11:24:26;96973.19;;;1.95;79.26
46724;BME280;32463;48.298;11.620;2023-02-28T11:26:53;96958.38;;;3.11;72.80
46724;BME280;32463;48.298;11.620;2023-02-28T11:29:23;96952.38;;;4.02;66.64
46724;BME280;32463;48.298;11.620;2023-02-28T11:32:18;96946.97;;;5.17;63.58
46724;BME280;32463;48.298;11.620;2023-02-28T11:34:46;96946.63;;;5.91;62.12
46724;BME280;32463;48.298;11.620;2023-02-28T11:37:27;96940.38;;;5.83;56.16
46724;BME280;32463;48.298;11.620;2023-02-28T11:39:55;96937.44;;;4.82;59.12
46724;BME280;32463;48.298;11.620;2023-02-28T11:45:31;96927.16;;;5.76;57.64
46724;BME280;32463;48.298;11.620;2023-02-28T12:07:01;96917.13;;;4.66;56.58
46724;BME280;32463;48.298;11.620;2023-02-28T12:15:28;96908.91;;;4.98;57.08
46724;BME280;32463;48.298;11.620;2023-02-28T12:20:57;96918.44;;;4.48;58.78
46724;BME280;32463;48.298;11.620;2023-02-28T12:23:46;96917.09;;;4.79;58.58
46724;BME280;32463;48.298;11.620;2023-02-28T12:28:59;96902.97;;;7.00;53.61
46724;BME280;32463;48.298;11.620;2023-02-28T12:31:32;96897.69;;;6.58;53.95
46724;BME280;32463;48.298;11.620;2023-02-28T12:34:08;96904.63;;;7.01;51.64
46724;BME280;32463;48.298;11.620;2023-02-28T12:36:36;96894.59;;;7.07;51.45
46724;BME280;32463;48.298;11.620;2023-02-28T12:39:12;96895.22;;;8.04;49.19
46724;BME280;32463;48.298;11.620;2023-02-28T12:41:46;96903.09;;;6.98;51.20
46724;BME280;32463;48.298;11.620;2023-02-28T12:44:23;96894.50;;;7.09;50.91
46724;BME280;32463;48.298;11.620;2023-02-28T12:46:57;96893.41;;;6.14;51.91
46724;BME280;32463;48.298;11.620;2023-02-28T12:49:30;96889.38;;;5.19;54.50
46724;BME280;32463;48.298;11.620;2023-02-28T12:51:59;96891.41;;;5.03;55.53
46724;BME280;32463;48.298;11.620;2023-02-28T12:54:33;96901.06;;;5.23;55.64
46724;BME280;32463;48.298;11.620;2023-02-28T12:59:48;96885.63;;;5.12;56.21
46724;BME280;32463;48.298;11.620;2023-02-28T13:10:43;96872.84;;;6.68;52.26
46724;BME280;32463;48.298;11.620;2023-02-28T13:13:16;96865.84;;;6.48;52.64
46724;BME280;32463;48.298;11.620;2023-02-28T13:16:03;96872.47;;;7.05;50.35
46724;BME280;32463;48.298;11.620;2023-02-28T13:21:03;96869.59;;;7.19;50.93
46724;BME280;32463;48.298;11.620;2023-02-28T13:26:12;96866.59;;;7.14;51.63
46724;BME280;32463;48.298;11.620;2023-02-28T13:31:18;96873.03;;;6.33;51.82
46724;BME280;32463;48.298;11.620;2023-02-28T13:36:25;96882.31;;;5.56;55.11
46724;BME280;32463;48.298;11.620;2023-02-28T13:47:35;96875.72;;;6.86;50.83
46724;BME280;32463;48.298;11.620;2023-02-28T14:08:35;96866.59;;;6.28;53.69
46724;BME280;32463;48.298;11.620;2023-02-28T14:11:15;96870.34;;;5.79;54.17
46724;BME280;32463;48.298;11.620;2023-02-28T14:13:49;96877.03;;;6.26;54.17
46724;BME280;32463;48.298;11.620;2023-02-28T14:16:20;96871.44;;;6.10;54.23
46724;BME280;32463;48.298;11.620;2023-02-28T14:18:58;96885.97;;;5.65;55.64
46724;BME280;32463;48.298;11.620;2023-02-28T14:21:30;96876.97;;;4.89;56.45
46724;BME280;32463;48.298;11.620;2023-02-28T14:27:55;96878.69;;;4.04;62.07
46724;BME280;32463;48.298;11.620;2023-02-28T14:38:24;96883.34;;;4.36;60.58
46724;BME280;32463;48.298;11.620;2023-02-28T14:40:53;96883.25;;;3.88;61.96
46724;BME280;32463;48.298;11.620;2023-02-28T14:43:26;96876.69;;;3.59;63.20
46724;BME280;32463;48.298;11.620;2023-02-28T14:45:57;96883.25;;;3.63;63.83
46724;BME280;32463;48.298;11.620;2023-02-28T14:48:26;96873.75;;;4.01;63.95
46724;BME280;32463;48.298;11.620;2023-02-28T14:50:57;96882.19;;;4.03;63.55
46724;BME280;32463;48.298;11.620;2023-02-28T14:53:29;96881.09;;;3.82;63.57
46724;BME280;32463;48.298;11.620;2023-02-28T14:55:56;96878.53;;;3.82;63.40
46724;BME280;32463;48.298;11.620;2023-02-28T14:58:28;96871.53;;;3.71;63.91
46724;BME280;32463;48.298;11.620;2023-02-28T15:00:57;96868.25;;;3.69;63.56
46724;BME280;32463;48.298;11.620;2023-02-28T15:03:35;96873.91;;;3.62;63.89
46724;BME280;32463;48.298;11.620;2023-02-28T15:06:14;96867.56;;;3.55;64.13
46724;BME280;32463;48.298;11.620;2023-02-28T15:08:43;96874.59;;;3.26;64.84
46724;BME280;32463;48.298;11.620;2023-02-28T15:11:15;96875.00;;;3.20;66.70
46724;BME280;32463;48.298;11.620;2023-02-28T15:13:49;96871.75;;;3.30;67.72
46724;BME280;32463;48.298;11.620;2023-02-28T15:16:22;96879.09;;;3.22;67.44
46724;BME280;32463;48.298;11.620;2023-02-28T15:18:54;96871.94;;;3.27;66.94
46724;BME280;32463;48.298;11.620;2023-02-28T15:21:30;96873.47;;;3.17;66.67
46724;BME280;32463;48.298;11.620;2023-02-28T15:26:45;96878.06;;;3.12;67.76
46724;BME280;32463;48.298;11.620;2023-02-28T15:29:19;96886.84;;;3.08;68.18
46724;BME280;32463;48.298;11.620;2023-02-28T15:32:01;96885.44;;;3.04;68.59